Latest Weather Observations for Grafton Airport

IDN60801

Issued at 3:32 pm EST Saturday 5 September 2015 (issued every 30 minutes, with the page automatically refreshed every 10 minutes)

About weather observations | Map of weather stations | Latest weather observations for NSW | Other Formats
Station Details ID: 058161 Name: GRAFTON AIRPORT AWS Lat: -29.76 Lon: 153.03 Height: 25.09 m
Data from the previous 72 hours. | See also: Recent months at Grafton Airport
Date/Time
EST
Temp
°C
App
Temp
°C
Dew
Point
Rel
Hum
%
Delta-T
°C
Wind Press
QNH
hPa
Press
MSL
hPa
Rain
since 9 am
mm
Dir
 
Spd
km/h
Gust
km/h
Spd
kts
Gust
kts
05/03:00pm 21.5 18.6 10.9 51 5.8 NE 17 22 9 12 1018.2 1018.2 0.0
05/02:30pm 22.0 19.0 10.5 48 6.3 ENE 17 26 9 14 1018.1 1018.1 0.0
05/02:00pm 21.2 18.8 11.5 54 5.4 NE 15 20 8 11 1018.3 1018.3 0.0
05/01:30pm 22.8 20.6 10.9 47 6.6 NE 13 22 7 12 1018.8 1018.8 0.0
05/01:00pm 22.3 20.3 10.1 46 6.6 N 11 20 6 11 1019.3 1019.3 0.0
05/12:30pm 22.0 20.1 10.5 48 6.3 NNE 11 19 6 10 1019.9 1019.9 0.0
05/12:00pm 21.0 19.2 9.3 47 6.2 NNE 9 17 5 9 1020.7 1020.7 0.0
05/11:30am 20.4 19.4 10.2 52 5.5 NNW 6 15 3 8 1021.6 1021.6 0.0
05/11:00am 19.9 19.0 10.6 55 5.0 N 6 15 3 8 1022.2 1022.2 0.0
05/10:30am 19.8 19.2 12.3 62 4.2 NNE 7 13 4 7 1022.6 1022.6 0.0
05/10:00am 18.6 18.0 11.7 64 3.8 W 6 11 3 6 1023.0 1023.0 0.0
05/09:30am 17.6 16.7 10.7 64 3.7 N 6 11 3 6 1023.1 1023.1 0.0
05/09:00am 17.0 16.6 12.5 75 2.5 NNE 6 11 3 6 1023.3 1023.3 0.0
05/08:30am 15.4 16.0 12.0 80 1.8 CALM 0 0 0 0 1023.5 1023.5 0.0
05/08:00am 14.7 14.9 11.8 83 1.6 WNW 2 7 1 4 1023.4 1023.4 0.0
05/07:30am 13.4 13.1 11.5 88 1.0 W 4 7 2 4 1023.0 1023.0 0.0
05/07:00am 12.3 12.8 11.5 95 0.4 CALM 0 6 0 3 1022.8 1022.8 0.0
05/06:30am 11.2 11.4 10.4 95 0.4 CALM 0 0 0 0 1022.5 1022.5 0.0
05/06:00am 11.4 11.6 10.5 94 0.5 CALM 0 0 0 0 1022.1 1022.1 0.0
05/05:30am 11.7 11.9 10.6 93 0.6 CALM 0 0 0 0 1021.8 1021.8 0.0
05/05:00am 11.8 11.0 10.9 94 0.5 SSW 6 7 3 4 1021.6 1021.6 0.0
05/04:30am 12.1 11.2 10.7 91 0.7 SW 6 7 3 4 1021.4 1021.4 0.0
05/04:00am 12.6 12.2 11.2 91 0.7 SSW 4 6 2 3 1021.3 1021.3 0.0
05/03:30am 12.6 11.9 11.3 92 0.7 SW 6 9 3 5 1021.1 1021.1 0.0
05/03:00am 12.1 12.4 10.8 92 0.7 CALM 0 0 0 0 1020.9 1020.9 0.0
05/02:30am 12.6 11.8 11.2 91 0.7 S 6 7 3 4 1020.9 1020.9 0.0
05/02:00am 12.9 12.2 11.3 90 0.8 S 6 7 3 4 1021.2 1021.2 0.0
05/01:30am 12.8 13.2 11.4 91 0.7 CALM 0 4 0 2 1021.4 1021.4 0.0
05/01:00am 12.8 12.2 11.7 93 0.6 S 6 7 3 4 1021.6 1021.6 0.0
05/12:30am 12.3 12.6 11.0 92 0.7 CALM 0 6 0 3 1021.7 1021.7 0.0
05/12:00am 12.3 12.7 11.2 93 0.6 CALM 0 6 0 3 1021.8 1021.8 0.0
 
Date/Time
EST
Temp
°C
App
Temp
°C
Dew
Point
Rel
Hum
%
Delta-T
°C
Wind Press
QNH
hPa
Press
MSL
hPa
Rain
since 9 am
mm
Dir
 
Spd
km/h
Gust
km/h
Spd
kts
Gust
kts
04/11:30pm 12.5 12.9 11.1 91 0.7 CALM 0 4 0 2 1021.7 1021.7 0.0
04/11:00pm 13.3 13.7 11.4 88 1.0 CALM 0 6 0 3 1021.9 1021.9 0.0
04/10:30pm 13.2 12.3 11.4 89 1.0 S 7 9 4 5 1021.8 1021.8 0.0
04/10:00pm 13.2 13.6 11.3 88 1.0 CALM 0 0 0 0 1022.0 1022.0 0.0
04/09:30pm 13.7 14.0 10.9 83 1.5 CALM 0 0 0 0 1021.9 1021.9 0.0
04/09:00pm 14.1 14.3 10.5 79 1.9 CALM 0 0 0 0 1021.8 1021.8 0.0
04/08:30pm 15.4 15.8 11.2 76 2.2 CALM 0 0 0 0 1021.7 1021.7 0.0
04/08:00pm 15.8 15.0 11.0 73 2.6 WSW 6 7 3 4 1021.5 1021.5 0.0
04/07:30pm 16.3 16.6 11.0 71 2.8 CALM 0 6 0 3 1021.2 1021.2 0.0
04/07:00pm 16.6 14.9 11.1 70 2.9 SSE 11 17 6 9 1020.9 1020.9 0.0
04/06:30pm 16.7 15.4 11.2 70 3.0 S 9 13 5 7 1020.7 1020.7 0.0
04/06:00pm 17.1 14.6 11.2 68 3.2 S 15 19 8 10 1020.3 1020.3 0.0
04/05:30pm 17.7 14.2 11.0 65 3.6 S 20 28 11 15 1020.0 1020.0 0.0
04/05:00pm 18.6 15.6 10.7 60 4.3 SSE 17 22 9 12 1019.4 1019.4 0.0
04/04:30pm 19.3 16.3 10.6 57 4.7 S 17 26 9 14 1019.1 1019.1 0.0
04/04:00pm 20.0 16.2 11.2 57 4.8 SSE 22 33 12 18 1018.7 1018.7 0.0
04/03:30pm 21.1 18.2 10.9 52 5.6 SSE 17 28 9 15 1018.5 1018.5 0.0
04/03:00pm 21.1 17.4 10.3 50 5.9 SSE 20 32 11 17 1018.3 1018.3 0.0
04/02:30pm 20.9 16.1 8.9 46 6.3 SE 24 41 13 22 1018.1 1018.1 0.0
04/02:00pm 21.0 16.9 8.6 45 6.5 SSE 20 32 11 17 1018.1 1018.1 0.0
04/01:30pm 21.6 17.1 8.5 43 6.9 SSE 22 43 12 23 1018.0 1018.0 0.0
04/01:00pm 22.5 17.1 8.2 40 7.5 SSE 26 37 14 20 1018.2 1018.2 0.0
04/12:30pm 22.0 16.1 7.4 39 7.6 S 28 43 15 23 1018.1 1018.1 0.0
04/12:00pm 21.9 15.5 7.0 38 7.6 SSE 30 48 16 26 1018.6 1018.6 0.0
04/11:54am 22.4 16.1 7.4 38 7.8 SSE 30 48 16 26 1018.5 1018.5 0.0
04/11:30am 21.8 17.5 9.3 45 6.7 SSW 22 37 12 20 1018.5 1018.5 0.0
04/11:00am 20.3 15.5 8.9 48 6.0 S 24 39 13 21 1018.7 1018.7 0.0
04/10:30am 20.5 15.6 8.5 46 6.3 SSW 24 39 13 21 1018.7 1018.7 0.0
04/10:00am 20.8 15.7 9.1 47 6.2 S 26 41 14 22 1018.6 1018.6 0.0
04/09:45am 20.7 15.8 9.9 50 5.8 S 26 39 14 21 1018.4 1018.4 0.0
04/09:30am 19.9 17.5 10.0 53 5.3 SSW 13 20 7 11 1018.4 1018.4 0.0
04/09:00am 18.5 16.2 9.0 54 5.0 SSW 11 17 6 9 1018.2 1018.2 0.0
04/08:30am 16.6 15.7 9.1 61 3.9 SW 4 7 2 4 1018.2 1018.2 0.0
04/08:00am 14.4 13.4 7.5 63 3.4 SSW 2 7 1 4 1017.8 1017.8 0.0
04/07:30am 12.2 11.5 6.9 70 2.5 CALM 0 0 0 0 1017.3 1017.3 0.0
04/07:00am 8.3 7.7 7.2 93 0.5 CALM 0 0 0 0 1016.9 1016.8 0.0
04/06:30am 6.8 4.5 5.7 93 0.5 SSW 7 9 4 5 1016.2 1016.1 0.0
04/06:00am 7.0 6.0 5.6 91 0.6 CALM 0 7 0 4 1015.7 1015.6 0.0
04/05:30am 6.7 4.5 5.3 91 0.6 SSW 6 7 3 4 1015.0 1014.9 0.0
04/05:00am 6.7 5.5 4.5 86 1.0 CALM 0 0 0 0 1014.8 1014.7 0.0
04/04:30am 8.0 5.8 5.5 84 1.1 ESE 6 7 3 4 1014.6 1014.5 0.0
04/04:00am 9.7 8.7 5.5 75 1.9 CALM 0 0 0 0 1014.3 1014.2 0.0
04/03:30am 9.5 7.2 5.5 76 1.8 SSW 7 13 4 7 1014.2 1014.1 0.0
04/03:00am 6.3 4.0 4.9 91 0.6 SW 6 7 3 4 1013.8 1013.7 0.0
04/02:30am 7.6 5.8 5.4 86 1.0 SSE 4 9 2 5 1013.9 1013.8 0.0
04/02:00am 8.4 7.4 5.7 83 1.2 CALM 0 0 0 0 1013.8 1013.7 0.0
04/01:30am 8.1 5.9 5.4 83 1.2 E 6 9 3 5 1014.0 1013.9 0.0
04/01:00am 9.3 7.2 5.9 79 1.6 S 6 9 3 5 1013.9 1013.8 0.0
04/12:30am 8.1 7.0 5.2 82 1.3 CALM 0 6 0 3 1013.7 1013.6 0.0
04/12:00am 9.5 8.5 5.5 76 1.8 CALM 0 0 0 0 1013.8 1013.7 0.0
 
Date/Time
EST
Temp
°C
App
Temp
°C
Dew
Point
Rel
Hum
%
Delta-T
°C
Wind Press
QNH
hPa
Press
MSL
hPa
Rain
since 9 am
mm
Dir
 
Spd
km/h
Gust
km/h
Spd
kts
Gust
kts
03/11:30pm 9.5 8.5 5.7 77 1.7 CALM 0 0 0 0 1013.8 1013.7 0.0
03/11:00pm 10.6 9.2 5.6 71 2.3 NNE 2 7 1 4 1013.9 1013.8 0.0
03/10:30pm 11.0 9.9 5.3 68 2.6 CALM 0 0 0 0 1013.7 1013.6 0.0
03/10:00pm 11.1 9.3 5.4 68 2.6 ENE 4 6 2 3 1013.6 1013.5 0.0
03/09:30pm 11.6 9.8 5.3 65 2.9 N 4 6 2 3 1013.1 1013.0 0.0
03/09:00pm 11.3 8.8 4.7 64 3.0 ENE 7 9 4 5 1012.8 1012.7 0.0
03/08:30pm 13.1 11.9 4.5 56 3.9 CALM 0 6 0 3 1012.2 1012.1 0.0
03/08:00pm 13.8 11.5 4.7 54 4.2 WNW 6 13 3 7 1011.9 1011.8 0.0
03/07:30pm 14.0 12.0 4.6 53 4.3 NNW 4 9 2 5 1011.6 1011.5 0.0
03/07:00pm 14.9 12.0 4.6 50 4.8 NW 9 17 5 9 1011.3 1011.2 0.0
03/06:30pm 15.3 12.4 4.9 50 4.9 NW 9 17 5 9 1010.6 1010.5 0.0
03/06:00pm 15.4 12.5 4.8 49 5.0 W 9 17 5 9 1010.5 1010.4 0.0
03/05:30pm 16.0 13.5 4.7 47 5.3 NW 7 22 4 12 1009.8 1009.7 0.0
03/05:00pm 17.0 13.3 4.3 43 6.0 NW 13 24 7 13 1009.7 1009.6 0.0
03/04:30pm 19.1 15.7 5.9 42 6.5 WNW 13 28 7 15 1009.0 1008.9 0.0
03/04:00pm 19.3 15.6 6.1 42 6.6 WNW 15 30 8 16 1008.6 1008.5 0.0
03/03:30pm 18.7 13.1 5.2 41 6.6 W 24 41 13 22 1008.0 1007.9 0.0
03/03:17pm 20.1 13.4 3.8 34 7.8 W 28 48 15 26 1007.3 1007.2 0.0
03/03:00pm 22.5 17.2 3.1 28 9.3 W 20 43 11 23 1006.4 1006.3 0.0
03/02:30pm 23.1 17.5 0.2 22 10.4 WNW 19 44 10 24 1005.5 1005.4 0.0
03/02:00pm 23.8 18.9 2.0 24 10.4 W 17 30 9 16 1005.4 1005.3 0.0
03/01:30pm 23.8 18.2 0.2 21 10.8 WNW 19 33 10 18 1005.7 1005.6 0.0
03/01:00pm 24.0 18.7 -0.3 20 11.1 W 17 35 9 19 1005.9 1005.8 0.0
03/12:30pm 23.9 18.4 2.1 24 10.4 NW 20 39 11 21 1006.3 1006.2 0.0
03/12:00pm 24.4 19.7 5.2 29 9.7 NW 19 33 10 18 1006.6 1006.5 0.0
03/11:30am 23.9 20.2 7.9 36 8.5 WNW 17 30 9 16 1007.2 1007.1 0.0
03/11:00am 22.8 21.1 12.4 52 5.9 NW 13 30 7 16 1007.8 1007.7 0.0
03/10:30am 20.6 19.3 13.8 65 3.9 NW 13 24 7 13 1008.2 1008.1 0.0
03/10:00am 20.0 19.3 14.4 70 3.3 W 11 20 6 11 1008.4 1008.3 0.0
03/09:30am 18.6 17.8 13.0 70 3.2 NNW 9 13 5 7 1008.8 1008.7 0.0
03/09:00am 17.6 16.7 13.7 78 2.2 NNW 11 17 6 9 1009.0 1008.9 4.8
03/08:30am 15.9 15.9 12.5 80 1.9 WNW 4 9 2 5 1009.2 1009.1 4.8
03/08:00am 14.1 13.7 12.3 89 1.0 SSW 6 9 3 5 1009.2 1009.1 4.8
03/07:30am 12.7 12.2 11.9 95 0.4 SW 6 7 3 4 1009.4 1009.3 4.8
03/07:00am 11.9 12.1 11.7 99 0.1 S 2 6 1 3 1008.9 1008.8 4.8
03/06:30am 11.2 11.4 10.7 97 0.3 CALM 0 6 0 3 1009.0 1008.9 4.8
03/06:00am 11.5 10.8 11.3 99 0.1 S 6 9 3 5 1008.9 1008.8 4.8
03/05:30am 11.4 11.8 11.1 98 0.2 CALM 0 6 0 3 1008.7 1008.6 4.8
03/05:10am 11.3 11.6 10.8 97 0.3 CALM 0 0 0 0 1008.6 1008.5 4.8
03/05:00am 11.4 11.0 11.1 98 0.2 N 4 7 2 4 1008.3 1008.2 4.8
03/04:47am 11.8 11.1 11.5 98 0.2 WNW 6 11 3 6 1008.9 1008.8 4.0
03/04:37am 11.8 11.5 11.6 99 0.1 SE 4 13 2 7 1008.0 1007.9 3.6
03/04:30am 11.7 10.1 11.5 99 0.1 E 11 17 6 9 1008.9 1008.8 3.4
03/04:05am 11.3 10.9 11.1 99 0.1 WSW 4 9 2 5 1010.3 1010.2 1.2
03/04:00am 11.2 11.2 11.0 99 0.1 SW 2 9 1 5 1010.2 1010.1 0.4
03/03:38am 10.5 10.2 10.2 98 0.2 WSW 2 7 1 4 1008.9 1008.8 0.4
03/03:30am 10.4 9.3 10.1 98 0.2 WSW 6 7 3 4 1008.9 1008.8 0.4
03/03:00am 10.6 10.6 9.8 95 0.4 CALM 0 0 0 0 1009.1 1009.0 0.4
03/02:45am 11.4 11.3 10.8 96 0.3 E 2 6 1 3 1009.9 1009.8 0.4
03/02:30am 11.5 11.0 10.7 95 0.4 ESE 4 7 2 4 1009.8 1009.7 0.4
03/02:00am 11.9 11.9 11.0 94 0.5 ENE 2 7 1 4 1010.9 1010.8 0.4
03/01:30am 12.0 11.6 11.1 94 0.5 W 4 7 2 4 1011.2 1011.1 0.2
03/01:00am 12.1 10.7 10.8 92 0.7 W 9 13 5 7 1011.2 1011.1 0.2
03/12:30am 12.6 10.3 11.7 94 0.5 ENE 15 20 8 11 1011.3 1011.2 0.2
03/12:25am 12.5 10.5 11.6 94 0.5 ENE 13 20 7 11 1011.7 1011.6 0.2
03/12:00am 12.2 11.2 10.9 92 0.7 NE 7 9 4 5 1013.7 1013.6 0.2
 
Date/Time
EST
Temp
°C
App
Temp
°C
Dew
Point
Rel
Hum
%
Delta-T
°C
Wind Press
QNH
hPa
Press
MSL
hPa
Rain
since 9 am
mm
Dir
 
Spd
km/h
Gust
km/h
Spd
kts
Gust
kts
02/11:30pm 12.7 13.1 11.3 91 0.7 CALM 0 0 0 0 1014.1 1014.0 0.0
02/11:00pm 12.0 12.0 9.9 87 1.1 CALM 0 0 0 0 1013.9 1013.8 0.0
02/10:30pm 12.6 11.5 10.5 87 1.1 SSW 7 7 4 4 1014.3 1014.2 0.0
02/10:00pm 11.7 10.7 10.4 92 0.7 SSW 6 7 3 4 1014.9 1014.8 0.0
02/09:30pm 11.0 9.8 9.6 91 0.7 SSW 6 9 3 5 1014.5 1014.4 0.0
02/09:00pm 11.2 11.0 9.1 87 1.0 CALM 0 0 0 0 1014.6 1014.5 0.0
02/08:30pm 11.8 10.6 9.5 86 1.2 S 6 9 3 5 1014.5 1014.4 0.0
02/08:00pm 12.7 12.7 9.7 82 1.5 CALM 0 0 0 0 1014.8 1014.7 0.0
02/07:30pm 13.3 13.1 9.0 75 2.2 CALM 0 6 0 3 1014.7 1014.6 0.0
02/07:00pm 14.5 13.2 9.1 70 2.8 E 6 7 3 4 1014.8 1014.7 0.0
02/06:30pm 15.8 14.4 9.5 66 3.3 NE 7 9 4 5 1015.0 1014.9 0.0
02/06:00pm 16.3 15.3 9.0 62 3.8 NE 4 7 2 4 1014.5 1014.4 0.0
02/05:30pm 17.0 15.3 8.4 57 4.4 NE 7 9 4 5 1014.5 1014.4 0.0
02/05:00pm 18.5 16.1 8.5 52 5.2 NE 11 19 6 10 1014.5 1014.4 0.0
02/04:30pm 19.9 16.4 8.9 49 5.8 NE 17 20 9 11 1014.1 1014.0 0.0
02/04:00pm 20.4 16.6 9.9 51 5.6 NE 20 26 11 14 1014.3 1014.2 0.0

Other Formats:

Comma delimited format used in spreadsheet applications
http://www.bom.gov.au/fwo/IDN60801/IDN60801.95570.axf

JavaScript Object Notation format (JSON) in row-major order
http://www.bom.gov.au/fwo/IDN60801/IDN60801.95570.json